createdAt,value
2023-11-18T00:00:12.172Z,6.40
2023-11-18T00:02:39.937Z,6.50
2023-11-18T00:05:08.613Z,6.50
2023-11-18T00:07:35.976Z,6.50
2023-11-18T00:10:05.595Z,6.40
2023-11-18T00:12:34.147Z,7.60
2023-11-18T00:15:04.382Z,8.30
2023-11-18T00:17:32.954Z,6.50
2023-11-18T00:20:00.169Z,6.50
2023-11-18T00:22:29.115Z,6.50
2023-11-18T00:24:56.316Z,8.50
2023-11-18T00:27:23.898Z,6.50
2023-11-18T00:29:50.894Z,6.50
2023-11-18T00:32:18.176Z,6.50
2023-11-18T00:34:46.209Z,6.50
2023-11-18T00:37:13.179Z,8.60
2023-11-18T00:39:40.246Z,6.50
2023-11-18T00:42:07.362Z,6.50
2023-11-18T00:44:34.402Z,4.30
2023-11-18T00:47:02.129Z,8.00
2023-11-18T00:49:29.164Z,7.60
2023-11-18T00:51:56.223Z,8.10
2023-11-18T00:55:15.487Z,6.30
2023-11-18T00:57:42.560Z,6.30
2023-11-18T01:00:23.037Z,6.20
2023-11-18T01:02:51.231Z,6.10
2023-11-18T01:05:18.476Z,6.10
2023-11-18T01:07:45.652Z,7.70
2023-11-18T01:10:14.784Z,6.00
2023-11-18T01:12:46.333Z,6.00
2023-11-18T01:15:13.639Z,8.10
2023-11-18T01:17:41.104Z,6.80
2023-11-18T01:20:12.295Z,6.00
2023-11-18T01:22:40.609Z,5.90
2023-11-18T01:25:09.801Z,6.80
2023-11-18T01:27:36.894Z,6.00
2023-11-18T01:30:05.426Z,8.20
2023-11-18T01:32:33.580Z,6.10
2023-11-18T01:35:00.705Z,8.00
2023-11-18T01:37:27.826Z,6.10
2023-11-18T01:39:55.703Z,6.20
2023-11-18T01:42:22.642Z,6.20
2023-11-18T01:44:49.645Z,6.20
2023-11-18T01:47:17.695Z,6.30
2023-11-18T01:49:45.554Z,6.30
2023-11-18T01:52:13.188Z,6.30
2023-11-18T01:54:41.872Z,6.40
2023-11-18T01:57:11.137Z,8.20
2023-11-18T01:59:42.019Z,8.80
2023-11-18T02:02:10.019Z,6.50
2023-11-18T02:04:37.977Z,6.60
2023-11-18T02:07:10.274Z,6.60
2023-11-18T02:09:37.940Z,6.70
2023-11-18T02:12:32.226Z,6.70
2023-11-18T02:15:01.932Z,6.80
2023-11-18T02:17:30.496Z,6.80
2023-11-18T02:19:58.567Z,7.40
2023-11-18T02:22:27.222Z,6.80
2023-11-18T02:24:54.410Z,8.70
2023-11-18T02:27:23.258Z,6.90
2023-11-18T02:29:52.607Z,8.00
2023-11-18T02:32:35.615Z,9.60
2023-11-18T02:35:27.014Z,7.00
2023-11-18T02:37:56.562Z,6.90
2023-11-18T02:40:42.402Z,7.00
2023-11-18T02:43:11.983Z,7.00
2023-11-18T02:45:41.005Z,8.90
2023-11-18T02:48:08.629Z,7.00
2023-11-18T02:50:42.609Z,7.00
2023-11-18T02:53:10.674Z,7.00
2023-11-18T02:55:37.666Z,7.00
2023-11-18T02:58:06.973Z,9.10
2023-11-18T03:00:35.633Z,7.40
2023-11-18T03:03:04.197Z,7.00
2023-11-18T03:05:32.222Z,7.00
2023-11-18T03:07:59.591Z,9.30
2023-11-18T03:10:27.390Z,7.00
2023-11-18T03:12:55.372Z,7.00
2023-11-18T03:15:24.458Z,7.00
2023-11-18T03:17:53.272Z,7.00
2023-11-18T03:20:24.018Z,8.10
2023-11-18T03:22:52.557Z,7.10
2023-11-18T03:25:23.053Z,7.00
2023-11-18T03:27:50.322Z,7.00
2023-11-18T03:30:18.218Z,7.00
2023-11-18T03:32:46.514Z,7.00
2023-11-18T03:35:14.115Z,9.20
2023-11-18T03:37:43.124Z,8.90
2023-11-18T03:40:13.306Z,6.90
2023-11-18T03:42:42.637Z,6.90
2023-11-18T03:45:11.106Z,6.80
2023-11-18T03:47:38.603Z,7.00
2023-11-18T03:50:06.981Z,7.00
2023-11-18T03:52:35.766Z,7.00
2023-11-18T03:55:05.705Z,7.00
2023-11-18T03:57:33.680Z,7.40
2023-11-18T04:00:01.096Z,7.20
2023-11-18T04:02:28.343Z,7.10
2023-11-18T04:04:55.520Z,7.10
2023-11-18T04:07:22.971Z,8.80
2023-11-18T04:09:49.947Z,8.30
2023-11-18T04:12:17.556Z,7.20
2023-11-18T04:14:44.661Z,7.20
2023-11-18T04:17:11.717Z,7.20
2023-11-18T04:19:40.149Z,7.20
2023-11-18T04:22:07.297Z,9.10
2023-11-18T04:24:36.252Z,7.20
2023-11-18T04:27:04.021Z,7.20
2023-11-18T04:29:31.379Z,8.70
2023-11-18T04:31:58.685Z,7.30
2023-11-18T04:34:26.162Z,9.40
2023-11-18T04:36:53.142Z,7.30
2023-11-18T04:39:21.705Z,7.40
2023-11-18T04:41:48.935Z,7.40
2023-11-18T04:44:17.667Z,7.40
2023-11-18T04:46:46.078Z,8.40
2023-11-18T04:49:13.234Z,9.50
2023-11-18T04:51:40.416Z,7.50
2023-11-18T04:54:09.414Z,9.00
2023-11-18T04:56:36.889Z,7.50
2023-11-18T04:59:07.955Z,7.50
2023-11-18T05:01:35.059Z,7.50
2023-11-18T05:04:02.122Z,7.50
2023-11-18T05:06:29.132Z,7.60
2023-11-18T05:08:57.193Z,8.70
2023-11-18T05:11:24.180Z,9.40
2023-11-18T05:13:51.636Z,8.40
2023-11-18T05:16:19.354Z,7.60
2023-11-18T05:18:46.389Z,9.50
2023-11-18T05:21:13.533Z,7.60
2023-11-18T05:23:40.470Z,7.70
2023-11-18T05:26:07.729Z,7.70
2023-11-18T05:28:35.352Z,7.70
2023-11-18T05:31:03.701Z,8.00
2023-11-18T05:33:31.305Z,7.70
2023-11-18T05:35:58.525Z,7.70
2023-11-18T05:38:28.954Z,7.80
2023-11-18T05:41:00.520Z,10.00
2023-11-18T05:43:42.294Z,9.70
2023-11-18T05:46:16.384Z,7.80
2023-11-18T05:48:46.766Z,8.10
2023-11-18T05:51:14.261Z,9.30
2023-11-18T05:53:48.380Z,9.30
2023-11-18T05:56:19.437Z,7.90
2023-11-18T05:58:47.361Z,9.40
2023-11-18T06:01:17.965Z,7.90
2023-11-18T06:03:47.197Z,7.90
2023-11-18T06:06:21.022Z,7.90
2023-11-18T06:08:52.380Z,7.90
2023-11-18T06:11:20.910Z,7.90
2023-11-18T06:13:51.515Z,8.00
2023-11-18T06:16:22.113Z,7.90
2023-11-18T06:18:56.152Z,8.40
2023-11-18T06:21:31.855Z,8.00
2023-11-18T06:24:01.103Z,8.00
2023-11-18T06:26:28.865Z,8.00
2023-11-18T06:28:57.613Z,8.00
2023-11-18T06:31:25.780Z,8.10
2023-11-18T06:33:53.442Z,8.10
2023-11-18T06:36:22.613Z,8.10
2023-11-18T06:38:52.124Z,8.60
2023-11-18T06:41:24.402Z,8.10
2023-11-18T06:43:57.962Z,8.10
2023-11-18T06:46:34.628Z,8.10
2023-11-18T06:49:12.376Z,8.20
2023-11-18T06:51:39.956Z,10.60
2023-11-18T06:54:10.419Z,8.10
2023-11-18T06:56:46.209Z,8.10
2023-11-18T06:59:15.890Z,8.20
2023-11-18T07:01:45.034Z,10.20
2023-11-18T07:04:15.377Z,9.50
2023-11-18T07:06:44.682Z,8.20
2023-11-18T07:09:18.642Z,8.90
2023-11-18T07:11:48.171Z,8.20
2023-11-18T07:14:19.223Z,9.40
2023-11-18T07:16:46.629Z,8.20
2023-11-18T07:19:22.317Z,8.20
2023-11-18T07:21:51.521Z,8.20
2023-11-18T07:24:19.110Z,10.20
2023-11-18T07:26:46.937Z,9.50
2023-11-18T07:29:15.470Z,10.20
2023-11-18T07:31:44.489Z,8.80
2023-11-18T07:34:11.464Z,8.30
2023-11-18T07:36:38.381Z,8.30
2023-11-18T07:39:05.625Z,8.30
2023-11-18T07:41:33.846Z,8.30
2023-11-18T07:44:01.714Z,8.30
2023-11-18T07:46:31.805Z,8.40
2023-11-18T07:48:59.493Z,8.40
2023-11-18T07:51:26.468Z,9.70
2023-11-18T07:53:56.601Z,8.40
2023-11-18T07:56:24.442Z,8.40
2023-11-18T07:58:52.917Z,8.50
2023-11-18T08:01:23.141Z,8.50
2023-11-18T08:03:53.774Z,9.70
2023-11-18T08:06:20.834Z,10.50
2023-11-18T08:08:49.165Z,8.50
2023-11-18T08:11:16.488Z,8.60
2023-11-18T08:13:44.797Z,9.50
2023-11-18T08:16:13.929Z,8.60
2023-11-18T08:18:40.956Z,11.10
2023-11-18T08:21:08.619Z,8.70
2023-11-18T08:23:35.670Z,10.40
2023-11-18T08:26:04.849Z,8.80
2023-11-18T08:28:32.605Z,8.80
2023-11-18T08:30:59.743Z,8.80
2023-11-18T08:33:26.933Z,8.90
2023-11-18T08:35:53.984Z,9.20
2023-11-18T08:38:21.226Z,8.90
2023-11-18T08:40:49.864Z,9.00
2023-11-18T08:43:17.889Z,9.00
2023-11-18T08:45:45.958Z,9.10
2023-11-18T08:48:13.307Z,9.10
2023-11-18T08:50:44.473Z,9.10
2023-11-18T08:53:13.146Z,9.10
2023-11-18T08:55:41.652Z,9.20
2023-11-18T08:58:28.975Z,9.30
2023-11-18T09:01:15.084Z,9.20
2023-11-18T09:03:53.555Z,9.20
2023-11-18T09:06:29.185Z,9.20
2023-11-18T09:08:59.272Z,9.30
2023-11-18T09:11:33.968Z,10.10
2023-11-18T09:14:02.829Z,9.30
2023-11-18T09:16:30.840Z,9.30
2023-11-18T09:19:03.397Z,9.30
2023-11-18T09:21:31.211Z,10.30
2023-11-18T09:23:58.620Z,9.50
2023-11-18T09:26:27.590Z,9.40
2023-11-18T09:28:55.045Z,11.40
2023-11-18T09:31:23.108Z,9.50
2023-11-18T09:33:53.907Z,9.60
2023-11-18T09:36:23.825Z,9.60
2023-11-18T09:38:51.356Z,9.60
2023-11-18T09:41:19.157Z,9.70
2023-11-18T09:43:49.144Z,9.80
2023-11-18T09:46:23.242Z,9.80
2023-11-18T09:49:16.282Z,11.70
2023-11-18T09:51:48.442Z,9.90
2023-11-18T09:54:53.730Z,11.90
2023-11-18T09:57:44.715Z,10.00
2023-11-18T10:00:27.617Z,10.10
2023-11-18T10:02:58.350Z,10.10
2023-11-18T10:05:28.731Z,11.40
2023-11-18T10:07:59.654Z,11.00
2023-11-18T10:10:37.070Z,10.20
2023-11-18T10:13:25.916Z,11.50
2023-11-18T10:15:58.426Z,11.30
2023-11-18T10:18:26.698Z,12.30
2023-11-18T10:20:54.701Z,12.10
2023-11-18T10:23:24.064Z,10.40
2023-11-18T10:26:01.521Z,10.40
2023-11-18T10:28:30.599Z,10.50
2023-11-18T10:30:59.321Z,10.50
2023-11-18T10:33:34.438Z,10.50
2023-11-18T10:36:05.356Z,10.80
2023-11-18T10:38:44.420Z,10.60
2023-11-18T10:41:13.423Z,12.30
2023-11-18T10:43:43.393Z,10.70
2023-11-18T10:46:13.760Z,11.30
2023-11-18T10:48:43.897Z,11.90
2023-11-18T10:51:21.926Z,10.80
2023-11-18T10:53:55.031Z,10.80
2023-11-18T10:56:28.280Z,10.90
2023-11-18T10:59:08.948Z,10.90
2023-11-18T11:01:44.542Z,10.90
2023-11-18T11:04:18.385Z,12.30
2023-11-18T11:06:58.145Z,11.00
2023-11-18T11:09:36.522Z,12.90
2023-11-18T11:12:16.270Z,12.60
2023-11-18T11:15:08.491Z,11.00
2023-11-18T11:17:41.470Z,12.40
2023-11-18T11:20:18.936Z,11.10
2023-11-18T11:23:45.302Z,11.10
2023-11-18T11:26:41.023Z,11.10
2023-11-18T11:29:26.320Z,11.10
2023-11-18T11:32:39.571Z,11.10
2023-11-18T11:35:23.328Z,11.10
2023-11-18T11:37:51.290Z,11.70
2023-11-18T11:40:23.869Z,12.10
2023-11-18T11:42:56.147Z,12.50
2023-11-18T11:45:29.530Z,12.40
2023-11-18T11:48:17.696Z,11.20
2023-11-18T11:51:32.819Z,11.80
2023-11-18T11:54:16.020Z,11.20
2023-11-18T11:56:44.942Z,12.00
2023-11-18T11:59:12.733Z,12.70
2023-11-18T12:01:46.314Z,12.60
2023-11-18T12:04:22.712Z,12.50
2023-11-18T12:07:02.837Z,11.30
2023-11-18T12:09:41.049Z,11.10
2023-11-18T12:12:20.735Z,11.30
2023-11-18T12:15:21.787Z,11.90
2023-11-18T12:18:00.263Z,11.20
2023-11-18T12:20:55.164Z,11.30
2023-11-18T12:23:26.703Z,11.30
2023-11-18T12:25:59.161Z,11.40
2023-11-18T12:28:38.467Z,12.70
2023-11-18T12:31:07.671Z,11.20
2023-11-18T12:34:10.367Z,11.30
2023-11-18T12:37:06.332Z,11.20
2023-11-18T12:40:19.779Z,11.20
2023-11-18T12:43:05.978Z,11.20
2023-11-18T12:45:57.799Z,11.20
2023-11-18T12:48:29.079Z,11.20
2023-11-18T12:50:56.996Z,11.10
2023-11-18T12:53:26.526Z,11.10
2023-11-18T12:55:54.076Z,12.60
2023-11-18T12:58:21.623Z,12.40
2023-11-18T13:00:48.644Z,11.20
2023-11-18T13:03:16.658Z,11.10
2023-11-18T13:05:44.768Z,11.20
2023-11-18T13:08:12.476Z,11.10
2023-11-18T13:10:39.649Z,11.30
2023-11-18T13:13:09.977Z,11.20
2023-11-18T13:15:37.179Z,12.60
2023-11-18T13:18:08.563Z,11.20
2023-11-18T13:20:40.496Z,11.20
2023-11-18T13:23:10.653Z,12.60
2023-11-18T13:25:42.795Z,11.90
2023-11-18T13:28:13.796Z,11.20
2023-11-18T13:30:42.431Z,13.20
2023-11-18T13:33:10.133Z,13.70
2023-11-18T13:35:37.949Z,11.20
2023-11-18T13:38:06.316Z,12.70
2023-11-18T13:40:50.754Z,12.90
2023-11-18T13:43:17.902Z,12.80
2023-11-18T13:45:44.941Z,13.20
2023-11-18T13:48:14.743Z,13.10
2023-11-18T13:50:45.479Z,11.20
2023-11-18T13:53:13.742Z,11.90
2023-11-18T13:55:41.656Z,11.20
2023-11-18T13:58:11.799Z,11.30
2023-11-18T14:00:39.131Z,11.20
2023-11-18T14:03:08.019Z,13.20
2023-11-18T14:05:36.798Z,11.20
2023-11-18T14:08:13.472Z,11.20
2023-11-18T14:10:42.376Z,11.20
2023-11-18T14:13:18.315Z,11.10
2023-11-18T14:15:46.507Z,12.80
2023-11-18T14:18:15.381Z,11.20
2023-11-18T14:20:42.919Z,11.10
2023-11-18T14:23:10.118Z,12.50
2023-11-18T14:25:37.390Z,11.20
2023-11-18T14:28:05.124Z,11.10
2023-11-18T14:30:32.897Z,11.10
2023-11-18T14:32:59.972Z,11.10
2023-11-18T14:35:30.223Z,11.20
2023-11-18T14:37:57.935Z,12.60
2023-11-18T14:40:26.917Z,11.10
2023-11-18T14:42:54.072Z,12.40
2023-11-18T14:45:22.610Z,11.80
2023-11-18T14:47:50.079Z,13.00
2023-11-18T14:50:27.820Z,11.90
2023-11-18T14:53:01.015Z,12.50
2023-11-18T14:55:30.029Z,11.20
2023-11-18T14:57:57.604Z,12.10
2023-11-18T15:00:27.581Z,12.30
2023-11-18T15:03:00.374Z,11.10
2023-11-18T15:05:28.514Z,11.20
2023-11-18T15:07:57.030Z,12.10
2023-11-18T15:10:26.493Z,12.30
2023-11-18T15:12:59.299Z,11.10
2023-11-18T15:15:34.859Z,11.70
2023-11-18T15:18:15.249Z,12.10
2023-11-18T15:20:46.998Z,11.20
2023-11-18T15:23:18.245Z,11.20
2023-11-18T15:25:45.873Z,11.70
2023-11-18T15:28:13.199Z,12.50
2023-11-18T15:30:41.397Z,11.70
2023-11-18T15:33:11.535Z,11.20
2023-11-18T15:35:45.047Z,11.20
2023-11-18T15:38:17.886Z,11.50
2023-11-18T15:40:45.664Z,13.20
2023-11-18T15:43:13.004Z,11.20
2023-11-18T15:45:40.613Z,11.50
2023-11-18T15:48:11.212Z,11.30
2023-11-18T15:50:38.951Z,11.30
2023-11-18T15:53:09.697Z,11.90
2023-11-18T15:55:39.407Z,11.30
2023-11-18T15:58:06.714Z,11.30
2023-11-18T16:00:33.669Z,11.30
2023-11-18T16:03:02.975Z,12.30
2023-11-18T16:05:35.908Z,11.30
2023-11-18T16:08:05.777Z,11.30
2023-11-18T16:10:33.417Z,11.30
2023-11-18T16:13:01.879Z,12.40
2023-11-18T16:15:30.883Z,11.30
2023-11-18T16:17:59.974Z,11.40
2023-11-18T16:20:35.836Z,12.20
2023-11-18T16:23:04.551Z,11.40
2023-11-18T16:25:34.979Z,13.40
2023-11-18T16:28:04.108Z,12.60
2023-11-18T16:30:32.223Z,11.50
2023-11-18T16:33:08.774Z,11.50
2023-11-18T16:35:37.072Z,12.80
2023-11-18T16:38:04.270Z,13.60
2023-11-18T16:40:34.332Z,11.60
2023-11-18T16:43:02.526Z,13.30
2023-11-18T16:45:29.882Z,12.80
2023-11-18T16:47:57.129Z,12.10
2023-11-18T16:50:26.299Z,12.90
2023-11-18T16:52:53.928Z,13.00
2023-11-18T16:55:23.946Z,12.80
2023-11-18T16:57:54.263Z,11.70
2023-11-18T17:00:27.697Z,11.70
2023-11-18T17:02:58.376Z,11.70
2023-11-18T17:05:31.507Z,13.80
2023-11-18T17:08:00.275Z,13.80
2023-11-18T17:10:28.056Z,11.80
2023-11-18T17:12:55.492Z,13.00
2023-11-18T17:15:22.743Z,12.70
2023-11-18T17:18:03.562Z,12.60
2023-11-18T17:20:31.775Z,11.90
2023-11-18T17:22:58.975Z,12.00
2023-11-18T17:25:26.343Z,12.00
2023-11-18T17:27:54.455Z,12.00
2023-11-18T17:30:22.289Z,14.10
2023-11-18T17:32:53.798Z,13.20
2023-11-18T17:35:22.243Z,12.20
2023-11-18T17:37:50.141Z,13.80
2023-11-18T17:40:19.127Z,12.20
2023-11-18T17:42:46.541Z,11.80
2023-11-18T17:45:15.872Z,12.30
2023-11-18T17:47:44.633Z,13.40
2023-11-18T17:50:18.877Z,12.40
2023-11-18T17:52:52.030Z,12.40
2023-11-18T17:55:19.539Z,12.50
2023-11-18T17:57:47.487Z,12.50
2023-11-18T18:00:35.970Z,13.10
2023-11-18T18:03:04.562Z,12.60
2023-11-18T18:05:31.633Z,12.80
2023-11-18T18:07:59.193Z,13.80
2023-11-18T18:10:28.969Z,14.10
2023-11-18T18:12:56.634Z,14.20
2023-11-18T18:15:27.292Z,12.80
2023-11-18T18:17:54.522Z,12.80
2023-11-18T18:20:21.775Z,12.80
2023-11-18T18:22:49.495Z,13.10
2023-11-18T18:25:16.666Z,12.80
2023-11-18T18:27:44.120Z,12.90
2023-11-18T18:30:11.677Z,14.10
2023-11-18T18:32:39.093Z,12.90
2023-11-18T18:35:07.062Z,13.00
2023-11-18T18:37:34.812Z,12.90
2023-11-18T18:40:02.241Z,13.00
2023-11-18T18:42:30.012Z,13.00
2023-11-18T18:44:57.921Z,13.00
2023-11-18T18:47:26.967Z,13.10
2023-11-18T18:49:56.487Z,13.10
2023-11-18T18:52:23.535Z,13.40
2023-11-18T18:54:51.136Z,13.10
2023-11-18T18:57:18.942Z,13.10
2023-11-18T18:59:46.277Z,13.20
2023-11-18T19:02:13.846Z,14.90
2023-11-18T19:04:41.061Z,13.20
2023-11-18T19:07:08.468Z,13.20
2023-11-18T19:09:35.597Z,13.80
2023-11-18T19:12:03.259Z,15.00
2023-11-18T19:14:30.532Z,13.60
2023-11-18T19:16:58.477Z,14.50
2023-11-18T19:19:25.608Z,14.10
2023-11-18T19:21:54.274Z,13.30
2023-11-18T19:24:21.570Z,14.40
2023-11-18T19:26:49.379Z,13.30
2023-11-18T19:29:16.746Z,13.70
2023-11-18T19:31:43.894Z,13.40
2023-11-18T19:34:11.759Z,13.40
2023-11-18T19:36:38.845Z,13.40
2023-11-18T19:39:08.751Z,14.20
2023-11-18T19:41:35.951Z,13.40
2023-11-18T19:44:03.204Z,14.90
2023-11-18T19:46:30.374Z,13.50
2023-11-18T19:48:58.572Z,13.50
2023-11-18T19:51:25.709Z,13.50
2023-11-18T19:53:52.888Z,14.60
2023-11-18T19:56:20.050Z,13.60
2023-11-18T19:58:47.113Z,13.60
2023-11-18T20:01:19.226Z,13.60
2023-11-18T20:03:47.814Z,13.60
2023-11-18T20:06:15.139Z,14.40
2023-11-18T20:08:42.552Z,13.60
2023-11-18T20:11:13.365Z,13.70
2023-11-18T20:13:40.909Z,14.30
2023-11-18T20:16:10.522Z,15.50
2023-11-18T20:18:38.623Z,13.70
2023-11-18T20:21:06.755Z,13.70
2023-11-18T20:23:33.979Z,13.80
2023-11-18T20:26:01.416Z,13.80
2023-11-18T20:28:28.548Z,13.80
2023-11-18T20:30:55.634Z,13.80
2023-11-18T20:33:23.980Z,15.30
2023-11-18T20:35:51.240Z,13.90
2023-11-18T20:38:18.476Z,13.90
2023-11-18T20:40:45.811Z,14.00
2023-11-18T20:43:13.020Z,14.00
2023-11-18T20:45:41.463Z,14.00
2023-11-18T20:48:09.105Z,14.90
2023-11-18T20:50:45.501Z,15.50
2023-11-18T20:53:14.159Z,14.10
2023-11-18T20:55:41.329Z,14.10
2023-11-18T20:58:09.006Z,14.20
2023-11-18T21:00:37.029Z,14.00
2023-11-18T21:03:04.766Z,13.40
2023-11-18T21:05:32.178Z,14.20
2023-11-18T21:07:59.733Z,14.30
2023-11-18T21:10:26.760Z,15.60
2023-11-18T21:12:53.857Z,14.40
2023-11-18T21:15:21.156Z,14.40
2023-11-18T21:17:51.394Z,14.40
2023-11-18T21:20:20.492Z,14.50
2023-11-18T21:22:49.622Z,14.50
2023-11-18T21:25:17.054Z,14.50
2023-11-18T21:27:46.838Z,14.50
2023-11-18T21:30:14.663Z,15.10
2023-11-18T21:32:46.551Z,14.60
2023-11-18T21:35:15.920Z,14.60
2023-11-18T21:37:43.335Z,14.70
2023-11-18T21:40:14.682Z,14.70
2023-11-18T21:42:43.835Z,14.70
2023-11-18T21:45:13.227Z,14.70
2023-11-18T21:47:46.528Z,14.70
2023-11-18T21:50:16.879Z,15.90
2023-11-18T21:52:47.229Z,16.70
2023-11-18T21:55:14.637Z,14.80
2023-11-18T21:57:42.711Z,14.80
2023-11-18T22:00:17.757Z,17.10
2023-11-18T22:02:47.399Z,14.80
2023-11-18T22:05:15.781Z,14.90
2023-11-18T22:07:43.343Z,14.90
2023-11-18T22:10:16.569Z,14.90
2023-11-18T22:12:44.481Z,15.60
2023-11-18T22:15:16.000Z,15.90
2023-11-18T22:17:48.283Z,15.00
2023-11-18T22:20:17.991Z,15.00
2023-11-18T22:22:49.944Z,15.00
2023-11-18T22:25:17.278Z,15.00
2023-11-18T22:27:45.078Z,15.40
2023-11-18T22:30:17.167Z,15.20
2023-11-18T22:32:44.514Z,15.10
2023-11-18T22:35:11.786Z,15.10
2023-11-18T22:37:38.971Z,15.10
2023-11-18T22:40:10.388Z,15.20
2023-11-18T22:42:40.584Z,15.10
2023-11-18T22:45:17.334Z,14.80
2023-11-18T22:47:51.541Z,13.50
2023-11-18T22:50:19.303Z,15.20
2023-11-18T22:52:47.045Z,15.30
2023-11-18T22:55:16.103Z,15.50
2023-11-18T22:57:46.078Z,15.40
2023-11-18T23:00:33.538Z,15.40
2023-11-18T23:03:01.517Z,15.40
2023-11-18T23:05:28.568Z,15.50
2023-11-18T23:07:59.192Z,15.50
2023-11-18T23:10:26.791Z,15.50
2023-11-18T23:12:56.372Z,15.50
2023-11-18T23:15:25.725Z,15.50
2023-11-18T23:17:53.287Z,15.50
2023-11-18T23:20:22.156Z,16.80
2023-11-18T23:22:51.646Z,15.60
2023-11-18T23:25:23.873Z,15.60
2023-11-18T23:28:00.924Z,15.60
2023-11-18T23:30:28.917Z,16.50
2023-11-18T23:32:55.908Z,16.00
2023-11-18T23:35:22.933Z,15.70
2023-11-18T23:37:50.167Z,17.60
2023-11-18T23:40:17.295Z,15.70
2023-11-18T23:42:44.232Z,15.70
2023-11-18T23:45:14.905Z,16.30
2023-11-18T23:47:43.004Z,15.70
2023-11-18T23:50:17.002Z,15.70
2023-11-18T23:52:44.172Z,15.70
2023-11-18T23:55:14.901Z,17.00
2023-11-18T23:57:43.162Z,15.80
